Relevés horaires Eggishorn (Suisse)


Relevés horaires à Eggishorn - Mercredi 28 Août 2019
Heure UTC1 Température [°C] Vent [km/h] Hum. [%] Pres.4 [hPa] Visi. [Km] Nébu. [octa] Préc.5 [mm] Cond.
2m. Res. Ros. Dir.2 Vit. Moy. Raf.3
23:00 5.7 5.7 3.2 SSE 3.7 -- 7.4 84 700(0.3/3h) -- -- -- --
22:00 6.6 6.6 3.1 ONO 3.7 -- 11.1 78 700(0.5/3h) -- -- -- --
21:00 6.6 5.7 2.2 NO 5.6 -- 18.5 73 700(0.3/3h) -- -- -- --
20:00 6.9 4.1 2.6 NNO 14.8 -- 18.5 74 700(0.5/3h) -- -- -- --
19:00 6.7 6.7 2.8 ONO 3.7 -- 9.3 76 700(0.1/3h) -- -- -- --
18:00 6.0 4.5 2.9 ENE 7.4 -- 37.0 80 700(-0.2/3h) -- -- -- --
17:00 6.2 3.9 3.0 E 11.1 -- 27.8 80 700(-0.3/3h) -- -- -- --
16:00 6.3 5.3 3.3 E 5.6 -- 27.8 81 700(-0.3/3h) -- -- -- --
15:00 6.2 3.5 3.7 SE 13.0 -- 37.0 84 700(-0.4/3h) -- -- -- --
14:00 6.7 5.3 3.4 E 7.4 -- 33.3 79 700(-0.2/3h) -- -- -- --
13:00 6.8 4 3.4 E 14.8 -- 37.0 79 700(0.0/3h) -- -- -- --
12:00 6.7 3.6 3.8 ESE 16.7 -- 31.5 82 700(0.1/3h) -- -- -- --
11:00 5.4 1.8 3.8 SE 18.5 -- 27.8 89 700(0.1/3h) -- -- -- --
10:00 5.6 2.8 5.2 SE 13.0 -- 31.5 97 700(-0.2/3h) -- -- -- --
09:00 6.4 3 4.2 ESE 18.5 -- 24.1 86 700(-0.2/3h) -- -- -- --
08:00 7.2 6.4 5.4 E 5.6 -- 16.7 88 700(0.0/3h) -- -- -- --
07:00 6.3 4 3.3 SE 11.1 -- 22.2 81 700(0.5/3h) -- -- -- --
06:00 5.9 3.2 4.4 E 13.0 -- 16.7 90 700(0.2/3h) -- -- -- --
05:00 6.0 3.6 4.6 ESE 11.1 -- 16.7 91 700(-0.4/3h) -- -- -- --
04:00 6.0 5 4.9 SE 5.6 -- 9.3 93 700(-0.9/3h) -- -- -- --
03:00 6.2 4.2 4.5 SSE 9.3 -- 14.8 89 700(-0.6/3h) -- -- -- --
02:00 6.6 5.7 4.7 SE 5.6 -- 13.0 88 700(-0.6/3h) -- -- -- --
01:00 6.4 4.5 5.5 SE 9.3 -- 14.8 94 700(-0.3/3h) -- -- -- --
00:00 6.5 5.6 6.4 ESE 5.6 -- 24.1 99 700(-0.3/3h) -- -- -- --

1 Coordinated Universal Time. Actuellement il est 06:00 locale et 04:00 UTC.

2 Le vent souffle depuis la direction indiquée vers la direction oposée.

3 Les rafales max. sont disponible 40 min après l'heure du relevé.

4 Pour les stations d'altitude (plus de 600m) le géopotentiel du niveau le plus proche de la pression obligatoire est indiqué.

5 Les stations disposant d'un diffuseur peuvent indiquer "trace". Cela signifie que des précipitations ont touchés le sol mais que la quantité est inférieure à 0.1 mm.

Copyright

Les données affichées sur cette page sont la propriété exclusive de Météo Suisse.

Récapitulatif de la journée
Température [°C] Vent [km/h] Ensoleillement4 [h] Precipitations totale5 [mm] Pression [Hpa]
Min1 Max.2 Moy.3 Max. Min Max.
5.6 7.9 0 37.0 2 h 54 min 0 700.0 700.0

1 Température minimale relevée entre 18:00 UTC la veille et 18:00 UTC le jour donné.

2 Température maximale relevée entre 06:00 UTC le jour donné et 06:00 UTC le lendemain.

3 Vent moyen de la journée basé sur les relevés horaires.

4 Ensoleillement en heures relevé entre 06:00 UTC la veille et 06:00 UTC le jour donné.

5 Précipitations totales tombées entre 06:00 UTC la jour donné et 06:00 UTC le lendemain.

Graphiques horaires